Time;durP1;ratioP1;P1;durP2;ratioP2;P2;SDS_P1;SDS_P2;PMS_P1;PMS_P2;Temp;Humidity;BMP_temperature;BMP_pressure;BME280_temperature;BME280_humidity;BME280_pressure;Samples;Min_cycle;Max_cycle;Signal;HPM_P1;HPM_P2
2022/11/19 00:00:38;;;;;;;;;17.25;13.00;;;;;;;;5079679;27;45350;-77
2022/11/19 00:03:03;;;;;;;;;11.00;11.00;;;;;;;;5083320;27;45322;-77
2022/11/19 00:05:28;;;;;;;;;9.50;9.50;;;;;;;;5081392;27;45295;-77
2022/11/19 00:07:53;;;;;;;;;16.00;14.25;;;;;;;;5085410;27;45317;-77
2022/11/19 00:10:18;;;;;;;;;38.25;30.50;;;;;;;;5081819;27;46285;-77
2022/11/19 00:12:53;;;;;;;;;14.50;14.00;;;;;;;;5082550;27;45331;-77
2022/11/19 00:15:18;;;;;;;;;28.75;25.25;;;;;;;;5083674;27;45334;-77
2022/11/19 00:17:43;;;;;;;;;15.75;14.75;;;;;;;;5084652;27;45345;-77
2022/11/19 00:20:09;;;;;;;;;27.50;25.25;;;;;;;;5081351;27;45348;-77
2022/11/19 00:22:34;;;;;;;;;19.75;15.00;;;;;;;;5079885;27;45187;-77
2022/11/19 00:24:59;;;;;;;;;20.25;17.75;;;;;;;;5079791;27;45409;-77
2022/11/19 00:27:24;;;;;;;;;13.00;10.75;;;;;;;;5079536;27;45274;-77
2022/11/19 00:29:49;;;;;;;;;26.25;19.50;;;;;;;;5079169;27;46654;-77
2022/11/19 00:32:14;;;;;;;;;23.00;20.00;;;;;;;;5091925;27;45182;-77
2022/11/19 00:34:40;;;;;;;;;38.25;28.00;;;;;;;;5083254;27;45209;-77
2022/11/19 00:37:05;;;;;;;;;43.00;37.25;;;;;;;;5079635;27;45258;-78
2022/11/19 00:39:30;;;;;;;;;72.75;54.25;;;;;;;;5081940;27;45373;-77
2022/11/19 00:41:55;;;;;;;;;59.75;48.50;;;;;;;;5081089;27;45276;-77
2022/11/19 00:44:20;;;;;;;;;23.50;17.50;;;;;;;;5083944;27;44715;-77
2022/11/19 00:46:46;;;;;;;;;18.75;13.50;;;;;;;;5080433;27;45229;-78
2022/11/19 00:49:11;;;;;;;;;21.00;15.50;;;;;;;;5085405;27;47252;-78
2022/11/19 00:51:36;;;;;;;;;16.00;14.50;;;;;;;;5077993;27;45333;-77
2022/11/19 00:54:01;;;;;;;;;13.25;9.75;;;;;;;;5087794;27;45205;-77
2022/11/19 00:56:27;;;;;;;;;21.50;19.75;;;;;;;;5081727;27;45521;-77
2022/11/19 00:58:52;;;;;;;;;15.50;14.50;;;;;;;;5091861;27;47205;-77
2022/11/19 01:01:18;;;;;;;;;16.75;13.75;;;;;;;;5078975;27;45342;-77
2022/11/19 01:03:46;;;;;;;;;15.75;12.50;;;;;;;;5081417;27;45286;-77
2022/11/19 01:06:12;;;;;;;;;11.50;9.25;;;;;;;;5079256;28;46183;-77
2022/11/19 01:08:37;;;;;;;;;11.50;9.00;;;;;;;;5087362;27;48428;-77
2022/11/19 01:11:04;;;;;;;;;12.25;10.00;;;;;;;;5079230;28;45366;-77
2022/11/19 01:13:35;;;;;;;;;7.25;6.00;;;;;;;;5082106;27;45229;-77
2022/11/19 01:16:02;;;;;;;;;10.75;8.00;;;;;;;;5078795;27;45443;-77
2022/11/19 01:18:27;;;;;;;;;6.50;6.50;;;;;;;;5081987;27;45625;-78
2022/11/19 01:20:53;;;;;;;;;10.50;9.25;;;;;;;;5082010;27;45357;-77
2022/11/19 01:23:18;;;;;;;;;10.00;6.50;;;;;;;;5084875;27;45445;-77
2022/11/19 01:25:44;;;;;;;;;11.50;9.75;;;;;;;;5081031;27;45363;-77
2022/11/19 01:28:09;;;;;;;;;11.75;9.75;;;;;;;;5079224;27;45591;-76
2022/11/19 01:30:34;;;;;;;;;12.25;11.50;;;;;;;;5078467;27;45359;-77
2022/11/19 01:32:59;;;;;;;;;11.00;9.00;;;;;;;;5079600;27;45406;-76
2022/11/19 01:35:24;;;;;;;;;16.00;12.75;;;;;;;;5081551;27;45516;-77
2022/11/19 01:37:50;;;;;;;;;8.00;8.00;;;;;;;;5080260;27;46482;-76
2022/11/19 01:40:15;;;;;;;;;14.50;11.50;;;;;;;;5078724;27;45283;-76
2022/11/19 01:42:49;;;;;;;;;12.50;11.25;;;;;;;;5080801;27;45227;-76
2022/11/19 01:45:35;;;;;;;;;10.75;9.50;;;;;;;;5084438;27;45404;-76
2022/11/19 01:48:05;;;;;;;;;13.50;8.75;;;;;;;;5078353;27;45591;-76
2022/11/19 01:50:32;;;;;;;;;10.75;10.75;;;;;;;;5078518;27;45259;-76
2022/11/19 01:52:58;;;;;;;;;8.25;8.25;;;;;;;;5080441;27;45319;-76
2022/11/19 01:55:24;;;;;;;;;12.25;9.00;;;;;;;;5085967;27;45370;-76
2022/11/19 01:57:53;;;;;;;;;9.50;8.00;;;;;;;;5093877;27;45335;-76
2022/11/19 02:00:18;;;;;;;;;13.25;12.00;;;;;;;;5086945;27;45646;-76
2022/11/19 02:02:43;;;;;;;;;13.25;8.25;;;;;;;;5082339;27;45607;-76
2022/11/19 02:05:08;;;;;;;;;9.25;8.25;;;;;;;;5092048;27;45196;-76
2022/11/19 02:07:35;;;;;;;;;12.25;8.25;;;;;;;;5084098;27;45516;-76
2022/11/19 02:10:01;;;;;;;;;10.75;9.25;;;;;;;;5081722;27;45512;-76
2022/11/19 02:12:30;;;;;;;;;12.50;8.00;;;;;;;;5087025;27;45296;-76
2022/11/19 02:14:58;;;;;;;;;11.50;9.25;;;;;;;;5083912;27;46372;-76
2022/11/19 02:17:38;;;;;;;;;8.00;8.00;;;;;;;;5081834;27;47139;-76
2022/11/19 02:20:19;;;;;;;;;14.50;8.75;;;;;;;;5083167;27;45295;-76
2022/11/19 02:22:44;;;;;;;;;7.75;7.75;;;;;;;;5084214;27;45450;-76
2022/11/19 02:25:09;;;;;;;;;13.00;10.00;;;;;;;;5081493;27;45414;-76
2022/11/19 02:27:50;;;;;;;;;9.00;9.00;;;;;;;;5083919;27;45604;-76
2022/11/19 02:30:18;;;;;;;;;9.00;6.75;;;;;;;;5086465;27;45370;-76
2022/11/19 02:32:59;;;;;;;;;8.75;8.25;;;;;;;;5084293;27;45635;-75
2022/11/19 02:35:45;;;;;;;;;13.00;7.00;;;;;;;;5097276;27;45668;-75
2022/11/19 02:38:19;;;;;;;;;10.25;8.50;;;;;;;;5084412;27;45323;-75
2022/11/19 02:40:57;;;;;;;;;10.50;8.00;;;;;;;;5081238;27;45148;-76
2022/11/19 02:43:34;;;;;;;;;13.00;11.75;;;;;;;;5081259;27;45223;-75
2022/11/19 02:46:06;;;;;;;;;10.50;9.00;;;;;;;;5080764;27;45357;-75
2022/11/19 02:48:37;;;;;;;;;10.75;9.25;;;;;;;;5081112;27;45892;-76
2022/11/19 02:51:03;;;;;;;;;7.50;7.50;;;;;;;;5080953;27;45506;-75
2022/11/19 02:53:28;;;;;;;;;12.25;9.00;;;;;;;;5089908;27;45643;-75
2022/11/19 02:56:11;;;;;;;;;7.75;7.00;;;;;;;;5084401;27;45505;-75
2022/11/19 03:04:31;;;;;;;;;11.50;8.50;;;;;;;;5086589;27;45437;-77
2022/11/19 03:07:05;;;;;;;;;11.00;10.50;;;;;;;;5080577;27;45754;-77
2022/11/19 03:09:31;;;;;;;;;11.75;9.00;;;;;;;;5082929;27;45552;-78
2022/11/19 03:12:07;;;;;;;;;11.50;11.00;;;;;;;;5082582;27;45281;-77
2022/11/19 03:17:34;;;;;;;;;9.25;9.25;;;;;;;;5081052;27;45426;-78
2022/11/19 03:20:03;;;;;;;;;8.50;8.00;;;;;;;;5080521;27;45596;-77
2022/11/19 03:22:52;;;;;;;;;11.25;8.00;;;;;;;;5082832;27;45543;-77
2022/11/19 03:25:21;;;;;;;;;13.00;9.25;;;;;;;;5075156;27;45559;-77
2022/11/19 03:27:49;;;;;;;;;7.00;7.00;;;;;;;;5082928;27;45323;-77
2022/11/19 03:30:15;;;;;;;;;12.50;8.00;;;;;;;;5084197;27;45353;-77
2022/11/19 03:32:49;;;;;;;;;10.00;8.75;;;;;;;;5083090;27;45505;-77
2022/11/19 03:35:18;;;;;;;;;9.00;8.25;;;;;;;;5091110;27;45492;-77
2022/11/19 03:37:46;;;;;;;;;8.25;6.25;;;;;;;;5082723;27;45318;-77
2022/11/19 03:40:14;;;;;;;;;8.75;8.00;;;;;;;;5080362;27;45351;-77
2022/11/19 03:42:41;;;;;;;;;8.00;8.00;;;;;;;;5082633;27;45320;-77
2022/11/19 03:45:12;;;;;;;;;7.50;6.25;;;;;;;;5080026;27;45381;-77
2022/11/19 03:47:39;;;;;;;;;6.75;5.25;;;;;;;;5081877;27;45323;-77
2022/11/19 03:50:09;;;;;;;;;7.75;6.75;;;;;;;;5088244;27;45452;-77
2022/11/19 03:52:34;;;;;;;;;13.25;8.50;;;;;;;;5081658;27;45241;-77
2022/11/19 03:55:00;;;;;;;;;6.00;3.25;;;;;;;;5080361;27;45200;-77
2022/11/19 03:57:25;;;;;;;;;10.00;6.00;;;;;;;;5088071;27;45409;-77
2022/11/19 03:59:50;;;;;;;;;10.50;4.75;;;;;;;;5085596;27;45292;-77
2022/11/19 04:02:16;;;;;;;;;10.50;8.75;;;;;;;;5079972;27;45237;-77
2022/11/19 04:04:41;;;;;;;;;9.75;8.00;;;;;;;;5083764;27;45407;-78
2022/11/19 04:07:09;;;;;;;;;6.00;6.00;;;;;;;;5080097;27;45368;-77
2022/11/19 04:09:35;;;;;;;;;6.75;6.75;;;;;;;;5091152;27;45526;-77
2022/11/19 04:12:00;;;;;;;;;9.75;6.00;;;;;;;;5093585;27;45452;-77
2022/11/19 04:14:26;;;;;;;;;12.50;7.00;;;;;;;;5087524;27;45365;-77
2022/11/19 04:16:51;;;;;;;;;8.25;7.50;;;;;;;;5085363;27;45333;-77
2022/11/19 04:19:17;;;;;;;;;4.00;4.00;;;;;;;;5082817;27;45373;-77
2022/11/19 04:21:42;;;;;;;;;8.50;5.50;;;;;;;;5079792;27;45279;-77
2022/11/19 04:24:07;;;;;;;;;5.50;5.50;;;;;;;;5084442;27;45276;-78
2022/11/19 04:26:32;;;;;;;;;10.75;7.00;;;;;;;;5094093;27;45299;-77
2022/11/19 04:28:57;;;;;;;;;7.25;6.00;;;;;;;;5082352;27;45399;-77
2022/11/19 04:31:23;;;;;;;;;8.50;5.25;;;;;;;;5079497;27;44725;-77
2022/11/19 04:33:48;;;;;;;;;6.00;5.75;;;;;;;;5083716;27;45435;-77
2022/11/19 04:36:13;;;;;;;;;6.50;6.50;;;;;;;;5089114;27;45556;-78
2022/11/19 04:38:38;;;;;;;;;6.75;6.25;;;;;;;;5081811;27;46004;-77
2022/11/19 04:41:03;;;;;;;;;7.50;7.00;;;;;;;;5079447;27;45318;-78
2022/11/19 04:43:29;;;;;;;;;7.25;6.25;;;;;;;;5083081;27;45354;-77
2022/11/19 04:45:54;;;;;;;;;5.25;5.25;;;;;;;;5079130;27;45293;-77
2022/11/19 04:48:19;;;;;;;;;8.75;7.25;;;;;;;;5081773;27;46259;-77
2022/11/19 04:50:44;;;;;;;;;9.00;5.00;;;;;;;;5078004;27;44769;-77
2022/11/19 04:53:09;;;;;;;;;6.25;5.75;;;;;;;;5080472;27;45355;-77
2022/11/19 04:55:35;;;;;;;;;8.25;4.00;;;;;;;;5083615;27;45247;-77
2022/11/19 04:58:00;;;;;;;;;4.25;4.25;;;;;;;;5086133;27;45383;-78
2022/11/19 05:00:25;;;;;;;;;8.00;7.00;;;;;;;;5086776;27;45161;-77
2022/11/19 05:02:50;;;;;;;;;9.00;5.25;;;;;;;;5082576;27;45351;-77
2022/11/19 05:05:15;;;;;;;;;8.00;6.00;;;;;;;;5088641;27;45166;-77
2022/11/19 05:07:41;;;;;;;;;8.00;7.00;;;;;;;;5091561;27;45074;-77
2022/11/19 05:10:06;;;;;;;;;12.75;7.00;;;;;;;;5077666;27;45500;-78
2022/11/19 05:12:31;;;;;;;;;8.00;7.00;;;;;;;;5078977;27;45231;-77
2022/11/19 05:14:56;;;;;;;;;6.25;5.25;;;;;;;;5078906;27;45300;-78
2022/11/19 05:17:21;;;;;;;;;5.50;5.50;;;;;;;;5089085;27;47676;-78
2022/11/19 05:19:47;;;;;;;;;7.75;7.25;;;;;;;;5079741;27;45493;-77
2022/11/19 05:22:12;;;;;;;;;8.00;6.50;;;;;;;;5079465;27;45207;-77
2022/11/19 05:24:37;;;;;;;;;7.75;5.75;;;;;;;;5080727;27;45141;-77
2022/11/19 05:27:02;;;;;;;;;9.00;8.00;;;;;;;;5079007;27;47211;-77
2022/11/19 05:29:28;;;;;;;;;14.50;8.00;;;;;;;;5082760;27;45150;-78
2022/11/19 05:31:53;;;;;;;;;8.25;8.25;;;;;;;;5079204;27;45202;-78
2022/11/19 05:34:18;;;;;;;;;10.50;7.50;;;;;;;;5088666;27;45266;-78
2022/11/19 05:36:43;;;;;;;;;7.00;7.00;;;;;;;;5087111;27;45446;-77
2022/11/19 05:39:08;;;;;;;;;7.75;5.00;;;;;;;;5088780;27;45496;-77
2022/11/19 05:41:34;;;;;;;;;8.50;7.00;;;;;;;;5100261;27;45309;-77
2022/11/19 05:43:59;;;;;;;;;9.75;9.00;;;;;;;;5088523;27;45942;-77
2022/11/19 05:46:24;;;;;;;;;10.25;8.50;;;;;;;;5081938;27;46058;-77
2022/11/19 05:48:49;;;;;;;;;8.75;8.75;;;;;;;;5084444;27;45237;-78
2022/11/19 05:51:15;;;;;;;;;6.50;6.50;;;;;;;;5082698;27;45228;-77
2022/11/19 05:53:40;;;;;;;;;9.50;7.00;;;;;;;;5091113;27;46188;-77
2022/11/19 05:56:06;;;;;;;;;7.00;7.00;;;;;;;;5088590;27;47177;-78
2022/11/19 05:58:31;;;;;;;;;8.00;7.50;;;;;;;;5092933;27;45294;-77
2022/11/19 06:00:57;;;;;;;;;8.75;7.00;;;;;;;;5097807;27;45402;-77
2022/11/19 06:03:23;;;;;;;;;7.50;6.00;;;;;;;;5095062;27;45560;-78
2022/11/19 06:05:48;;;;;;;;;7.00;7.00;;;;;;;;5101420;27;46048;-78
2022/11/19 06:08:13;;;;;;;;;8.00;7.00;;;;;;;;5090456;27;45354;-78
2022/11/19 06:10:38;;;;;;;;;8.00;7.00;;;;;;;;5082261;27;45280;-77
2022/11/19 06:13:03;;;;;;;;;8.25;6.75;;;;;;;;5082749;27;45602;-77
2022/11/19 06:15:29;;;;;;;;;9.25;9.00;;;;;;;;5084343;27;45311;-77
2022/11/19 06:17:56;;;;;;;;;8.00;6.50;;;;;;;;5087928;27;46714;-77
2022/11/19 06:20:22;;;;;;;;;8.75;6.50;;;;;;;;5092591;27;45233;-78
2022/11/19 06:22:47;;;;;;;;;9.50;8.00;;;;;;;;5086971;27;45487;-77
2022/11/19 06:25:12;;;;;;;;;10.25;7.25;;;;;;;;5081525;27;45504;-77
2022/11/19 06:27:38;;;;;;;;;8.75;8.50;;;;;;;;5084024;27;45255;-78
2022/11/19 06:30:03;;;;;;;;;13.25;8.50;;;;;;;;5081308;27;45309;-77
2022/11/19 06:32:28;;;;;;;;;7.00;3.00;;;;;;;;5082639;27;46929;-77
2022/11/19 06:34:53;;;;;;;;;7.25;7.25;;;;;;;;5088800;27;45646;-77
2022/11/19 06:37:19;;;;;;;;;13.50;9.25;;;;;;;;5087243;27;45296;-77
2022/11/19 06:39:44;;;;;;;;;8.50;8.25;;;;;;;;5082911;27;45240;-77
2022/11/19 06:44:53;;;;;;;;;7.50;7.00;;;;;;;;5084702;27;45389;-77
2022/11/19 06:47:18;;;;;;;;;9.50;8.00;;;;;;;;5080889;27;45399;-79
2022/11/19 06:49:43;;;;;;;;;8.75;7.50;;;;;;;;5084472;27;45397;-78
2022/11/19 06:52:08;;;;;;;;;11.00;8.50;;;;;;;;5080275;27;45296;-77
2022/11/19 06:54:34;;;;;;;;;13.75;8.75;;;;;;;;5088602;27;46190;-77
2022/11/19 06:56:59;;;;;;;;;8.25;7.25;;;;;;;;5089553;27;45496;-76
2022/11/19 06:59:24;;;;;;;;;9.50;7.75;;;;;;;;5086895;27;45366;-78
2022/11/19 07:01:49;;;;;;;;;12.25;10.25;;;;;;;;5080948;27;45171;-78
2022/11/19 07:04:15;;;;;;;;;12.00;9.25;;;;;;;;5086571;27;45464;-78
2022/11/19 07:06:40;;;;;;;;;10.50;10.25;;;;;;;;5081078;27;45306;-79
2022/11/19 07:09:05;;;;;;;;;10.00;8.75;;;;;;;;5087522;27;45592;-78
2022/11/19 07:11:31;;;;;;;;;9.75;9.75;;;;;;;;5090410;27;45585;-78
2022/11/19 07:13:56;;;;;;;;;14.00;10.50;;;;;;;;5088824;27;45350;-78
2022/11/19 07:16:22;;;;;;;;;14.50;8.75;;;;;;;;5080344;27;45257;-78
2022/11/19 07:18:47;;;;;;;;;17.75;14.25;;;;;;;;5090880;27;45290;-78
2022/11/19 07:21:12;;;;;;;;;10.00;9.00;;;;;;;;5089544;27;45281;-77
2022/11/19 07:23:37;;;;;;;;;11.50;11.50;;;;;;;;5087294;27;45430;-78
2022/11/19 07:26:02;;;;;;;;;13.25;10.50;;;;;;;;5091478;27;45333;-79
2022/11/19 07:28:28;;;;;;;;;14.25;14.00;;;;;;;;5079710;27;45492;-79
2022/11/19 07:30:53;;;;;;;;;10.50;10.00;;;;;;;;5082082;28;45529;-79
2022/11/19 07:33:18;;;;;;;;;11.00;10.00;;;;;;;;5087396;27;45405;-78
2022/11/19 07:35:43;;;;;;;;;17.75;14.25;;;;;;;;5093283;27;45345;-77
2022/11/19 07:38:08;;;;;;;;;15.00;13.50;;;;;;;;5084379;27;45420;-78
2022/11/19 07:40:34;;;;;;;;;10.25;9.25;;;;;;;;5080189;27;45320;-78
2022/11/19 07:42:59;;;;;;;;;11.75;10.25;;;;;;;;5079917;27;45287;-78
2022/11/19 07:45:24;;;;;;;;;14.00;14.00;;;;;;;;5082511;27;45399;-79
2022/11/19 07:47:49;;;;;;;;;15.25;14.75;;;;;;;;5079557;27;45469;-78
2022/11/19 07:50:16;;;;;;;;;15.50;12.75;;;;;;;;5083540;27;45321;-79
2022/11/19 07:52:41;;;;;;;;;10.00;8.25;;;;;;;;5094259;27;45302;-79
2022/11/19 07:55:06;;;;;;;;;11.25;11.25;;;;;;;;5082453;27;45220;-78
2022/11/19 07:57:32;;;;;;;;;11.75;10.75;;;;;;;;5085210;27;45564;-78
2022/11/19 07:59:57;;;;;;;;;13.00;11.25;;;;;;;;5088448;27;45499;-78
2022/11/19 08:02:22;;;;;;;;;16.75;10.00;;;;;;;;5079731;27;45440;-77
2022/11/19 08:04:47;;;;;;;;;11.25;11.25;;;;;;;;5079615;27;45389;-79
2022/11/19 08:07:13;;;;;;;;;11.25;9.00;;;;;;;;5080064;27;45399;-77
2022/11/19 08:09:38;;;;;;;;;15.00;13.00;;;;;;;;5083676;27;45402;-77
2022/11/19 08:12:03;;;;;;;;;10.25;10.00;;;;;;;;5081546;27;45261;-77
2022/11/19 08:14:28;;;;;;;;;12.50;12.50;;;;;;;;5080226;27;45290;-76
2022/11/19 08:19:37;;;;;;;;;15.75;13.25;;;;;;;;5085492;27;45378;-77
2022/11/19 08:22:03;;;;;;;;;18.00;15.50;;;;;;;;5078707;27;46329;-77
2022/11/19 08:24:28;;;;;;;;;15.50;15.50;;;;;;;;5087136;27;45238;-78
2022/11/19 08:26:53;;;;;;;;;28.00;24.00;;;;;;;;5086253;27;45477;-75
2022/11/19 08:29:22;;;;;;;;;33.25;28.50;;;;;;;;5079552;27;45449;-77
2022/11/19 08:31:47;;;;;;;;;25.25;22.75;;;;;;;;5079236;27;45346;-76
2022/11/19 08:34:13;;;;;;;;;27.75;20.75;;;;;;;;5090900;27;45310;-77
2022/11/19 08:36:38;;;;;;;;;22.50;19.75;;;;;;;;5079438;27;45362;-77
2022/11/19 08:39:03;;;;;;;;;12.50;10.75;;;;;;;;5081356;27;45383;-78
2022/11/19 08:44:12;;;;;;;;;20.75;15.75;;;;;;;;5078718;27;45350;-76
2022/11/19 08:46:38;;;;;;;;;24.50;18.75;;;;;;;;5081241;27;44729;-76
2022/11/19 08:49:03;;;;;;;;;20.75;17.75;;;;;;;;5085857;27;45329;-79
2022/11/19 08:51:29;;;;;;;;;24.00;22.75;;;;;;;;5093696;27;45327;-78
2022/11/19 08:53:54;;;;;;;;;23.00;17.50;;;;;;;;5085680;27;45501;-78
2022/11/19 08:56:20;;;;;;;;;22.25;16.75;;;;;;;;5093203;27;45394;-77
2022/11/19 08:58:45;;;;;;;;;17.75;15.75;;;;;;;;5080692;27;45654;-77
2022/11/19 09:01:11;;;;;;;;;18.75;17.00;;;;;;;;5088672;27;45403;-77
2022/11/19 09:03:37;;;;;;;;;19.75;16.75;;;;;;;;5082757;27;45421;-76
2022/11/19 09:06:02;;;;;;;;;15.50;15.00;;;;;;;;5080627;27;45268;-77
2022/11/19 09:08:28;;;;;;;;;24.50;21.50;;;;;;;;5079692;27;45302;-77
2022/11/19 09:10:53;;;;;;;;;17.75;13.75;;;;;;;;5078600;27;46523;-77
2022/11/19 09:13:18;;;;;;;;;20.50;15.50;;;;;;;;5082987;27;45558;-77
2022/11/19 09:15:46;;;;;;;;;16.50;15.00;;;;;;;;5078675;27;45508;-76
2022/11/19 09:18:13;;;;;;;;;27.50;21.50;;;;;;;;5080304;27;45297;-73
2022/11/19 09:20:38;;;;;;;;;23.25;21.75;;;;;;;;5079457;28;45348;-75
2022/11/19 09:23:03;;;;;;;;;25.50;20.00;;;;;;;;5081796;27;45335;-74
2022/11/19 09:25:29;;;;;;;;;19.50;18.00;;;;;;;;5089413;27;45478;-74
2022/11/19 09:27:54;;;;;;;;;31.50;24.25;;;;;;;;5086586;27;45240;-75
2022/11/19 09:30:19;;;;;;;;;37.50;29.50;;;;;;;;5078319;27;45345;-74
2022/11/19 09:32:44;;;;;;;;;30.50;27.25;;;;;;;;5080936;27;45339;-75
2022/11/19 09:35:09;;;;;;;;;17.00;13.25;;;;;;;;5087066;27;45331;-73
2022/11/19 09:37:35;;;;;;;;;15.75;15.25;;;;;;;;5080461;27;45316;-73
2022/11/19 09:40:00;;;;;;;;;12.75;12.75;;;;;;;;5077956;27;45393;-73
2022/11/19 09:42:25;;;;;;;;;13.50;12.75;;;;;;;;5078193;27;45664;-73
2022/11/19 09:45:01;;;;;;;;;23.25;22.50;;;;;;;;5077731;27;44827;-74
2022/11/19 09:47:33;;;;;;;;;15.75;12.75;;;;;;;;5078146;27;45161;-75
2022/11/19 09:50:15;;;;;;;;;15.75;12.00;;;;;;;;5076830;27;46547;-75
2022/11/19 09:52:45;;;;;;;;;16.75;13.25;;;;;;;;5091297;27;45484;-75
2022/11/19 09:55:16;;;;;;;;;12.50;8.50;;;;;;;;5082392;27;45418;-76
2022/11/19 09:57:53;;;;;;;;;26.00;16.25;;;;;;;;5088875;27;45663;-76
2022/11/19 10:00:20;;;;;;;;;15.25;12.50;;;;;;;;5079485;27;45540;-76
2022/11/19 10:02:46;;;;;;;;;16.75;14.00;;;;;;;;5079654;27;45240;-77
2022/11/19 10:05:16;;;;;;;;;12.50;11.00;;;;;;;;5081035;28;45331;-76
2022/11/19 10:08:00;;;;;;;;;11.25;11.25;;;;;;;;5080357;27;45260;-76
2022/11/19 10:10:35;;;;;;;;;14.00;10.00;;;;;;;;5077736;27;45242;-76
2022/11/19 10:13:13;;;;;;;;;13.00;12.00;;;;;;;;5080105;27;45552;-76
2022/11/19 10:15:38;;;;;;;;;12.50;11.50;;;;;;;;5078292;27;45507;-76
2022/11/19 10:18:25;;;;;;;;;14.75;14.50;;;;;;;;5079806;27;45290;-76
2022/11/19 10:20:53;;;;;;;;;14.50;13.50;;;;;;;;5081537;27;46326;-76
2022/11/19 10:23:23;;;;;;;;;14.00;12.25;;;;;;;;5082744;27;45405;-76
2022/11/19 10:25:51;;;;;;;;;12.25;9.00;;;;;;;;5093026;27;45406;-76
2022/11/19 10:28:22;;;;;;;;;15.50;11.75;;;;;;;;5090292;27;45300;-76
2022/11/19 10:30:53;;;;;;;;;12.75;11.25;;;;;;;;5086253;27;45275;-76
2022/11/19 10:33:28;;;;;;;;;11.75;11.00;;;;;;;;5085514;27;45824;-76
2022/11/19 10:35:55;;;;;;;;;17.25;13.25;;;;;;;;5085249;27;45483;-75
2022/11/19 10:38:25;;;;;;;;;19.00;16.00;;;;;;;;5084199;27;46114;-76
2022/11/19 10:40:53;;;;;;;;;12.00;10.25;;;;;;;;5082613;27;45228;-77
2022/11/19 10:43:24;;;;;;;;;14.50;12.25;;;;;;;;5090252;27;45221;-77
2022/11/19 10:45:50;;;;;;;;;14.50;12.50;;;;;;;;5081485;27;45197;-76
2022/11/19 10:48:22;;;;;;;;;12.75;11.75;;;;;;;;5085937;27;45237;-76
2022/11/19 10:50:48;;;;;;;;;12.50;11.50;;;;;;;;5080560;27;45410;-76
2022/11/19 10:53:28;;;;;;;;;14.00;10.75;;;;;;;;5083598;27;45316;-77
2022/11/19 10:55:58;;;;;;;;;12.00;12.00;;;;;;;;5080829;27;45211;-77
2022/11/19 10:58:24;;;;;;;;;14.50;13.25;;;;;;;;5088560;27;45723;-77
2022/11/19 11:00:54;;;;;;;;;16.25;11.50;;;;;;;;5086487;27;45426;-76
2022/11/19 11:03:42;;;;;;;;;11.50;11.50;;;;;;;;5083656;27;45412;-75
2022/11/19 11:06:08;;;;;;;;;14.00;11.50;;;;;;;;5088765;27;45480;-75
2022/11/19 11:08:53;;;;;;;;;12.50;11.75;;;;;;;;5086032;27;45505;-74
2022/11/19 11:11:23;;;;;;;;;14.00;8.75;;;;;;;;5089483;27;45409;-74
2022/11/19 11:16:46;;;;;;;;;17.25;14.00;;;;;;;;5046657;27;44745;-74
2022/11/19 11:19:21;;;;;;;;;12.25;12.25;;;;;;;;5088384;27;45384;-74
2022/11/19 11:21:51;;;;;;;;;14.25;14.25;;;;;;;;5081824;27;45374;-71
2022/11/19 11:24:16;;;;;;;;;13.75;13.75;;;;;;;;5084177;27;45629;-73
2022/11/19 11:26:41;;;;;;;;;13.75;11.75;;;;;;;;5078452;27;44964;-77
2022/11/19 11:29:12;;;;;;;;;13.25;12.25;;;;;;;;5086889;27;45536;-79
2022/11/19 11:31:42;;;;;;;;;12.00;9.00;;;;;;;;5079300;27;46210;-80
2022/11/19 11:34:26;;;;;;;;;12.50;11.25;;;;;;;;5085624;27;45416;-77
2022/11/19 11:36:51;;;;;;;;;14.50;11.50;;;;;;;;5090108;27;45457;-77
2022/11/19 11:39:42;;;;;;;;;11.25;10.50;;;;;;;;5087680;27;45971;-78
2022/11/19 11:42:10;;;;;;;;;13.25;11.50;;;;;;;;5074499;27;46140;-78
2022/11/19 11:44:37;;;;;;;;;15.00;9.00;;;;;;;;5079399;27;45415;-78
2022/11/19 11:47:03;;;;;;;;;11.75;10.50;;;;;;;;5079483;28;45267;-77
2022/11/19 11:49:40;;;;;;;;;7.00;6.25;;;;;;;;5080361;27;45516;-77
2022/11/19 11:52:08;;;;;;;;;9.50;6.75;;;;;;;;5087136;27;45424;-77
2022/11/19 11:54:37;;;;;;;;;12.50;6.50;;;;;;;;5082286;27;45321;-78
2022/11/19 11:57:19;;;;;;;;;11.00;7.00;;;;;;;;5078516;27;45375;-78
2022/11/19 11:59:45;;;;;;;;;14.00;10.25;;;;;;;;5083981;27;45500;-77
2022/11/19 12:02:19;;;;;;;;;17.00;16.25;;;;;;;;5081132;27;45460;-77
2022/11/19 12:04:44;;;;;;;;;6.33;5.67;;;;;;;;5083066;27;45261;-78
2022/11/19 12:07:22;;;;;;;;;5.33;5.33;;;;;;;;5079200;27;45281;-77
2022/11/19 12:10:02;;;;;;;;;7.00;5.33;;;;;;;;5090037;27;45449;-77
2022/11/19 12:12:27;;;;;;;;;7.00;6.00;;;;;;;;5080595;27;46646;-77
2022/11/19 12:15:01;;;;;;;;;9.67;7.00;;;;;;;;5080257;27;45255;-77
2022/11/19 12:17:42;;;;;;;;;15.50;12.25;;;;;;;;5080244;27;45315;-77
2022/11/19 12:20:23;;;;;;;;;5.67;5.67;;;;;;;;5078840;27;45370;-77
2022/11/19 12:22:57;;;;;;;;;5.67;5.67;;;;;;;;5081455;27;45398;-78
2022/11/19 12:25:31;;;;;;;;;7.00;6.00;;;;;;;;5092022;27;45419;-78
2022/11/19 12:28:07;;;;;;;;;7.00;5.00;;;;;;;;5092322;27;45399;-77
2022/11/19 12:30:42;;;;;;;;;5.33;3.00;;;;;;;;5088414;27;45406;-78
2022/11/19 12:33:16;;;;;;;;;4.00;3.00;;;;;;;;5087191;27;45695;-76
2022/11/19 12:35:41;;;;;;;;;8.67;6.33;;;;;;;;5083759;27;45484;-76
2022/11/19 12:38:25;;;;;;;;;4.00;4.00;;;;;;;;5090770;27;45576;-76
2022/11/19 12:41:08;;;;;;;;;9.00;5.67;;;;;;;;5089346;27;45605;-77
2022/11/19 12:43:42;;;;;;;;;6.33;5.00;;;;;;;;5081102;27;45400;-77
2022/11/19 12:46:16;;;;;;;;;6.00;4.00;;;;;;;;5078595;27;45324;-77
2022/11/19 12:48:54;;;;;;;;;5.00;3.00;;;;;;;;5084069;27;45354;-77
2022/11/19 12:51:22;;;;;;;;;2.00;2.00;;;;;;;;5079503;27;45262;-77
2022/11/19 12:53:48;;;;;;;;;2.33;2.00;;;;;;;;5078895;27;46233;-76
2022/11/19 12:56:19;;;;;;;;;3.67;3.67;;;;;;;;5079432;27;45365;-77
2022/11/19 12:59:02;;;;;;;;;4.00;4.00;;;;;;;;5091038;27;45523;-77
2022/11/19 13:01:32;;;;;;;;;3.33;1.67;;;;;;;;5078456;27;45306;-77
2022/11/19 13:04:02;;;;;;;;;2.00;2.00;;;;;;;;5087041;27;45370;-76
2022/11/19 13:06:32;;;;;;;;;2.00;2.00;;;;;;;;5078590;28;45237;-76
2022/11/19 13:09:00;;;;;;;;;1.33;1.33;;;;;;;;5086021;27;45446;-76
2022/11/19 13:11:35;;;;;;;;;3.00;3.00;;;;;;;;5078160;27;45452;-77
2022/11/19 13:14:03;;;;;;;;;5.00;3.00;;;;;;;;5084779;27;46166;-77
2022/11/19 13:16:29;;;;;;;;;4.00;4.00;;;;;;;;5081814;27;45248;-76
2022/11/19 13:19:05;;;;;;;;;4.00;2.67;;;;;;;;5085134;27;45268;-76
2022/11/19 13:21:36;;;;;;;;;6.67;3.00;;;;;;;;5095445;27;45323;-78
2022/11/19 13:24:31;;;;;;;;;3.33;3.33;;;;;;;;5084227;27;45185;-77
2022/11/19 13:27:00;;;;;;;;;4.67;3.00;;;;;;;;5068854;27;45330;-77
2022/11/19 13:29:31;;;;;;;;;4.67;4.00;;;;;;;;5083785;27;45451;-78
2022/11/19 13:32:10;;;;;;;;;2.33;2.33;;;;;;;;5077914;27;45245;-77
2022/11/19 13:35:04;;;;;;;;;4.67;2.00;;;;;;;;5083775;27;45312;-78
2022/11/19 13:37:38;;;;;;;;;1.67;1.67;;;;;;;;5084469;27;45292;-77
2022/11/19 13:40:08;;;;;;;;;2.00;2.00;;;;;;;;5084958;27;45463;-76
2022/11/19 13:45:17;;;;;;;;;2.33;1.00;;;;;;;;5083067;27;45468;-77
2022/11/19 13:47:48;;;;;;;;;1.67;1.67;;;;;;;;5078400;27;45302;-78
2022/11/19 13:50:26;;;;;;;;;2.00;2.00;;;;;;;;5081225;27;45315;-77
2022/11/19 13:52:56;;;;;;;;;6.00;5.00;;;;;;;;5083106;27;46352;-78
2022/11/19 13:55:30;;;;;;;;;2.67;2.67;;;;;;;;5089924;27;47165;-78
2022/11/19 13:57:56;;;;;;;;;3.00;2.00;;;;;;;;5092636;27;45358;-77
2022/11/19 14:00:26;;;;;;;;;2.00;2.00;;;;;;;;5090529;27;45216;-77
2022/11/19 14:02:57;;;;;;;;;5.67;2.00;;;;;;;;5096254;27;45425;-77
2022/11/19 14:05:23;;;;;;;;;3.00;3.00;;;;;;;;5087320;27;45381;-78
2022/11/19 14:07:57;;;;;;;;;2.25;2.25;;;;;;;;5082914;27;45398;-78
2022/11/19 14:10:22;;;;;;;;;4.00;4.00;;;;;;;;5090140;27;45336;-78
2022/11/19 14:13:01;;;;;;;;;3.00;3.00;;;;;;;;5083447;27;45363;-78
2022/11/19 14:27:20;;;;;;;;;6.00;5.00;;;;;;;;5080537;27;45422;-78
2022/11/19 14:29:45;;;;;;;;;4.00;3.00;;;;;;;;5082908;27;45351;-78
2022/11/19 14:32:10;;;;;;;;;3.00;3.00;;;;;;;;5081457;27;45361;-78
2022/11/19 14:34:40;;;;;;;;;6.33;6.33;;;;;;;;5091017;27;45334;-78
2022/11/19 14:37:17;;;;;;;;;5.00;3.00;;;;;;;;5082887;27;46149;-78
2022/11/19 14:39:44;;;;;;;;;1.67;1.67;;;;;;;;5087709;27;45403;-78
2022/11/19 14:42:15;;;;;;;;;19.50;18.25;;;;;;;;5080627;27;45308;-78
2022/11/19 14:44:40;;;;;;;;;3.00;3.00;;;;;;;;5089175;27;45127;-78
2022/11/19 14:47:21;;;;;;;;;6.33;6.33;;;;;;;;5096158;27;46280;-78
2022/11/19 14:49:47;;;;;;;;;3.00;2.00;;;;;;;;5091739;27;45374;-78
2022/11/19 14:52:18;;;;;;;;;7.67;5.67;;;;;;;;5089878;27;45249;-78
2022/11/19 14:54:44;;;;;;;;;4.33;4.33;;;;;;;;5087306;27;45427;-78
2022/11/19 14:57:14;;;;;;;;;8.33;8.33;;;;;;;;5085933;27;45988;-78
2022/11/19 14:59:43;;;;;;;;;6.25;5.50;;;;;;;;5081319;27;45281;-78
2022/11/19 15:02:09;;;;;;;;;16.75;14.75;;;;;;;;5080181;27;45401;-78
2022/11/19 15:04:36;;;;;;;;;6.00;2.00;;;;;;;;5084388;27;45570;-78
2022/11/19 15:07:07;;;;;;;;;8.25;8.25;;;;;;;;5078703;27;45358;-78
2022/11/19 15:09:50;;;;;;;;;7.67;7.67;;;;;;;;5087694;27;45354;-78
2022/11/19 15:12:17;;;;;;;;;23.75;21.25;;;;;;;;5084119;27;45451;-78